Time;durP1;ratioP1;P1;durP2;ratioP2;P2;SDS_P1;SDS_P2;PMS_P1;PMS_P2;Temp;Humidity;BMP_temperature;BMP_pressure;BME280_temperature;BME280_humidity;BME280_pressure;Samples;Min_cycle;Max_cycle;Signal;HPM_P1;HPM_P2
2022/07/23 00:00:46;;;;;;;6.05;4.95;;;29.30;60.50;;;;;;5020753;28;20026;-61
2022/07/23 00:03:12;;;;;;;6.88;5.20;;;29.20;60.50;;;;;;5022179;28;20052;-61
2022/07/23 00:05:37;;;;;;;11.85;5.18;;;29.20;60.70;;;;;;5019722;28;20107;-61
2022/07/23 00:08:03;;;;;;;7.30;4.70;;;29.20;60.90;;;;;;5016975;28;20116;-62
2022/07/23 00:10:28;;;;;;;6.70;4.80;;;29.10;61.10;;;;;;5018922;28;20065;-62
2022/07/23 00:12:54;;;;;;;7.75;5.13;;;29.10;61.40;;;;;;5019749;28;20128;-61
2022/07/23 00:15:19;;;;;;;8.73;5.45;;;29.00;61.50;;;;;;5018054;28;20593;-61
2022/07/23 00:17:45;;;;;;;6.05;4.75;;;29.00;61.80;;;;;;5019509;28;20045;-61
2022/07/23 00:20:11;;;;;;;5.60;4.95;;;29.00;62.10;;;;;;5019697;28;20038;-61
2022/07/23 00:22:36;;;;;;;8.43;5.13;;;28.90;62.20;;;;;;5017951;28;20092;-62
2022/07/23 00:25:02;;;;;;;9.52;5.10;;;28.90;62.70;;;;;;5018556;28;20025;-61
2022/07/23 00:27:27;;;;;;;5.45;4.82;;;28.80;62.70;;;;;;5014865;28;20026;-61
2022/07/23 00:29:53;;;;;;;8.27;4.85;;;28.80;63.20;;;;;;5017907;28;20029;-61
2022/07/23 00:32:18;;;;;;;9.50;5.20;;;28.80;63.20;;;;;;5020825;28;20120;-61
2022/07/23 00:34:44;;;;;;;9.27;5.00;;;28.80;63.20;;;;;;5017832;28;20045;-61
2022/07/23 00:37:09;;;;;;;6.55;4.85;;;28.80;63.40;;;;;;5016596;28;20060;-61
2022/07/23 00:39:35;;;;;;;7.93;4.85;;;28.80;63.50;;;;;;5018198;28;20104;-61
2022/07/23 00:42:00;;;;;;;7.05;4.82;;;28.70;63.50;;;;;;5022449;28;20061;-61
2022/07/23 00:44:27;;;;;;;7.07;4.80;;;28.70;63.60;;;;;;5018994;28;20033;-61
2022/07/23 00:46:54;;;;;;;6.80;5.20;;;28.70;64.10;;;;;;5018340;28;20196;-61
2022/07/23 00:49:24;;;;;;;9.50;4.95;;;28.60;64.50;;;;;;5002698;28;20411;-61
2022/07/23 00:51:50;;;;;;;6.93;5.10;;;28.60;64.40;;;;;;5019838;28;20048;-61
2022/07/23 00:54:16;;;;;;;6.20;5.60;;;28.60;64.40;;;;;;5002502;28;20296;-61
2022/07/23 00:56:45;;;;;;;5.60;5.10;;;28.60;64.40;;;;;;5017943;28;20084;-61
2022/07/23 00:59:11;;;;;;;6.68;5.00;;;28.60;64.50;;;;;;5018777;28;20117;-61
2022/07/23 01:01:37;;;;;;;6.63;5.40;;;28.50;64.60;;;;;;5002512;28;20045;-61
2022/07/23 01:04:02;;;;;;;6.63;5.53;;;28.50;64.60;;;;;;5000483;28;20108;-61
2022/07/23 01:06:28;;;;;;;6.50;5.15;;;28.40;64.70;;;;;;5020057;28;20037;-61
2022/07/23 01:08:54;;;;;;;5.75;4.93;;;28.40;65.00;;;;;;4987881;28;20083;-61
2022/07/23 01:11:20;;;;;;;6.57;5.03;;;28.40;65.10;;;;;;5019913;28;20083;-61
2022/07/23 01:13:45;;;;;;;7.25;5.30;;;28.40;65.40;;;;;;5003623;28;20563;-60
2022/07/23 01:16:11;;;;;;;6.90;5.50;;;28.30;65.40;;;;;;5018084;28;20437;-61
2022/07/23 01:18:37;;;;;;;6.18;5.35;;;28.30;65.60;;;;;;5018724;28;20055;-61
2022/07/23 01:21:02;;;;;;;8.98;5.30;;;28.30;65.70;;;;;;5017814;28;20033;-61
2022/07/23 01:23:28;;;;;;;6.30;5.18;;;28.30;65.80;;;;;;5018268;28;20041;-61
2022/07/23 01:25:53;;;;;;;6.75;5.07;;;28.30;65.90;;;;;;5020995;28;20132;-61
2022/07/23 01:28:19;;;;;;;7.28;5.25;;;28.30;66.30;;;;;;5019289;28;20075;-61
2022/07/23 01:30:45;;;;;;;6.50;5.35;;;28.20;66.30;;;;;;5017614;28;20164;-61
2022/07/23 01:33:11;;;;;;;8.98;5.43;;;28.20;66.10;;;;;;5018923;28;20041;-61
2022/07/23 01:35:36;;;;;;;5.68;5.10;;;28.20;66.50;;;;;;5020542;28;20026;-61
2022/07/23 01:38:02;;;;;;;6.30;4.72;;;28.20;66.40;;;;;;5018905;28;20048;-61
2022/07/23 01:40:27;;;;;;;7.05;5.28;;;28.10;66.40;;;;;;5018934;28;20077;-61
2022/07/23 01:42:53;;;;;;;5.63;5.13;;;28.20;66.60;;;;;;5018454;28;20095;-61
2022/07/23 01:45:18;;;;;;;6.68;5.25;;;28.10;66.40;;;;;;5018499;28;20053;-61
2022/07/23 01:47:44;;;;;;;6.20;5.00;;;28.10;66.70;;;;;;5017661;28;20035;-61
2022/07/23 01:50:09;;;;;;;7.68;5.35;;;28.10;66.90;;;;;;5018389;28;20053;-61
2022/07/23 01:52:35;;;;;;;5.85;4.95;;;28.00;66.90;;;;;;5015823;28;20044;-61
2022/07/23 01:55:00;;;;;;;10.23;5.03;;;28.00;66.90;;;;;;5021150;28;21868;-61
2022/07/23 01:57:26;;;;;;;6.25;5.53;;;27.90;67.00;;;;;;5017332;28;20048;-61
2022/07/23 01:59:51;;;;;;;6.70;5.13;;;27.90;67.20;;;;;;5016227;28;20029;-61
2022/07/23 02:02:17;;;;;;;7.40;5.75;;;27.90;67.20;;;;;;5017375;28;20033;-60
2022/07/23 02:04:42;;;;;;;6.70;5.30;;;27.90;67.30;;;;;;5020762;28;20026;-61
2022/07/23 02:07:08;;;;;;;7.93;5.35;;;27.90;67.40;;;;;;5012689;28;20050;-61
2022/07/23 02:09:34;;;;;;;6.10;5.53;;;27.80;67.50;;;;;;5015480;28;20044;-61
2022/07/23 02:12:00;;;;;;;7.93;5.63;;;27.80;67.70;;;;;;5020135;28;20042;-61
2022/07/23 02:14:25;;;;;;;6.15;5.40;;;27.80;67.80;;;;;;5020718;28;20040;-61
2022/07/23 02:16:51;;;;;;;6.20;5.43;;;27.80;67.80;;;;;;5019605;28;20052;-61
2022/07/23 02:19:17;;;;;;;5.75;5.25;;;27.80;68.10;;;;;;5019662;28;20053;-61
2022/07/23 02:21:42;;;;;;;6.28;5.13;;;27.70;68.00;;;;;;5016998;28;20060;-61
2022/07/23 02:24:09;;;;;;;5.65;5.15;;;27.70;67.90;;;;;;5018920;28;20045;-61
2022/07/23 02:26:35;;;;;;;7.03;4.82;;;27.70;68.00;;;;;;5018968;28;20021;-61
2022/07/23 02:29:02;;;;;;;5.32;4.82;;;27.70;68.30;;;;;;5017924;28;20415;-61
2022/07/23 02:31:28;;;;;;;5.40;4.97;;;27.70;68.10;;;;;;5020936;28;20025;-61
2022/07/23 02:33:55;;;;;;;7.22;5.55;;;27.60;68.00;;;;;;5016409;28;20107;-61
2022/07/23 02:36:20;;;;;;;5.50;5.00;;;27.60;68.10;;;;;;5018894;28;20029;-60
2022/07/23 02:38:46;;;;;;;7.15;5.32;;;27.60;68.30;;;;;;5000235;28;20048;-61
2022/07/23 02:41:12;;;;;;;8.80;5.40;;;27.60;68.50;;;;;;5019378;28;20040;-61
2022/07/23 02:43:37;;;;;;;6.28;5.03;;;27.50;68.50;;;;;;5020326;28;20029;-61
2022/07/23 02:46:03;;;;;;;6.22;5.50;;;27.50;68.30;;;;;;5019493;28;20038;-61
2022/07/23 02:48:28;;;;;;;6.38;4.93;;;27.50;68.20;;;;;;5018028;28;20464;-61
2022/07/23 02:50:56;;;;;;;7.03;5.47;;;27.50;68.50;;;;;;5017126;28;20046;-61
2022/07/23 02:53:22;;;;;;;5.53;5.03;;;27.50;68.50;;;;;;5020671;28;20033;-61
2022/07/23 02:55:47;;;;;;;6.00;5.38;;;27.40;68.60;;;;;;5023538;28;20036;-61
2022/07/23 02:58:13;;;;;;;5.60;5.07;;;27.40;68.60;;;;;;5021896;28;20041;-61
2022/07/23 03:00:38;;;;;;;5.57;5.05;;;27.40;68.50;;;;;;5022476;28;20037;-62
2022/07/23 03:03:04;;;;;;;6.13;5.53;;;27.40;68.60;;;;;;5020269;28;20052;-62
2022/07/23 03:05:29;;;;;;;5.05;4.63;;;27.40;68.70;;;;;;5022913;28;20108;-61
2022/07/23 03:07:55;;;;;;;5.85;4.97;;;27.30;68.80;;;;;;5020189;28;20041;-62
2022/07/23 03:10:20;;;;;;;7.32;5.32;;;27.40;68.90;;;;;;5023766;28;20061;-62
2022/07/23 03:12:46;;;;;;;6.72;5.60;;;27.30;69.00;;;;;;5020267;28;20037;-62
2022/07/23 03:15:11;;;;;;;7.53;5.60;;;27.30;69.40;;;;;;5022983;28;20492;-62
2022/07/23 03:17:37;;;;;;;7.25;5.00;;;27.30;69.50;;;;;;5022777;28;20395;-62
2022/07/23 03:20:02;;;;;;;7.35;5.10;;;27.20;69.80;;;;;;5021789;28;20040;-61
2022/07/23 03:22:28;;;;;;;7.75;5.18;;;27.20;69.70;;;;;;5020320;28;20375;-62
2022/07/23 03:24:53;;;;;;;6.63;5.70;;;27.10;69.90;;;;;;5022810;28;20045;-61
2022/07/23 03:27:20;;;;;;;6.18;4.85;;;27.10;69.90;;;;;;5021219;28;20063;-61
2022/07/23 03:29:45;;;;;;;5.80;4.85;;;27.10;70.00;;;;;;5022269;28;20140;-62
2022/07/23 03:32:11;;;;;;;7.07;5.25;;;27.10;70.00;;;;;;5023192;28;20603;-61
2022/07/23 03:34:36;;;;;;;5.15;4.65;;;27.00;70.00;;;;;;5022557;28;20487;-61
2022/07/23 03:37:02;;;;;;;5.53;4.97;;;27.10;70.00;;;;;;5022235;28;20060;-61
2022/07/23 03:39:27;;;;;;;5.20;4.70;;;27.00;70.20;;;;;;5019630;28;20052;-61
2022/07/23 03:41:53;;;;;;;5.75;4.90;;;27.00;70.30;;;;;;5021560;28;20042;-61
2022/07/23 03:44:18;;;;;;;5.63;4.78;;;27.00;70.40;;;;;;5022458;28;20046;-61
2022/07/23 03:46:44;;;;;;;5.47;4.97;;;27.00;70.60;;;;;;5018798;28;20021;-61
2022/07/23 03:49:09;;;;;;;6.85;5.25;;;26.90;70.60;;;;;;5020581;28;20389;-61
2022/07/23 03:51:35;;;;;;;6.47;5.50;;;26.90;70.60;;;;;;5020325;28;20830;-61
2022/07/23 03:54:00;;;;;;;6.78;5.20;;;26.90;70.40;;;;;;5022613;28;20520;-61
2022/07/23 03:56:26;;;;;;;7.45;5.40;;;26.90;70.30;;;;;;5022560;28;20037;-61
2022/07/23 03:58:51;;;;;;;6.70;5.45;;;26.80;70.40;;;;;;5020543;28;20021;-62
2022/07/23 04:01:17;;;;;;;7.65;4.97;;;26.90;70.50;;;;;;5020485;28;20036;-61
2022/07/23 04:03:42;;;;;;;7.80;5.15;;;26.90;70.60;;;;;;5018997;28;20512;-62
2022/07/23 04:06:08;;;;;;;5.30;4.80;;;26.90;70.60;;;;;;5018627;28;20037;-61
2022/07/23 04:08:34;;;;;;;7.28;5.35;;;26.80;70.90;;;;;;5021297;28;20626;-62
2022/07/23 04:10:59;;;;;;;7.05;5.40;;;26.80;71.10;;;;;;5025489;28;20037;-62
2022/07/23 04:13:25;;;;;;;8.02;4.88;;;26.80;71.00;;;;;;5023545;28;20469;-61
2022/07/23 04:15:50;;;;;;;7.22;5.25;;;26.80;71.00;;;;;;5024408;28;20041;-61
2022/07/23 04:18:21;;;;;;;5.93;5.35;;;26.80;71.00;;;;;;5021082;28;20126;-61
2022/07/23 04:20:47;;;;;;;5.95;5.35;;;26.80;70.90;;;;;;5021262;28;20044;-61
2022/07/23 04:23:12;;;;;;;5.72;5.13;;;26.70;71.00;;;;;;5021701;28;20029;-62
2022/07/23 04:25:38;;;;;;;8.75;4.93;;;26.70;71.20;;;;;;5021055;28;20029;-61
2022/07/23 04:28:03;;;;;;;7.22;5.50;;;26.70;71.20;;;;;;5014035;28;20065;-61
2022/07/23 04:30:29;;;;;;;5.90;5.30;;;26.70;71.10;;;;;;5018742;28;20095;-61
2022/07/23 04:32:54;;;;;;;5.90;5.15;;;26.70;71.10;;;;;;5019274;28;20077;-61
2022/07/23 04:35:20;;;;;;;8.35;5.68;;;26.70;71.20;;;;;;5015740;28;20465;-61
2022/07/23 04:37:45;;;;;;;6.28;5.35;;;26.70;71.00;;;;;;5017829;28;20040;-61
2022/07/23 04:40:12;;;;;;;6.47;5.40;;;26.60;71.00;;;;;;5017923;28;20033;-61
2022/07/23 04:42:37;;;;;;;7.72;5.35;;;26.60;71.00;;;;;;5020740;28;20460;-61
2022/07/23 04:45:03;;;;;;;6.35;5.22;;;26.60;71.10;;;;;;5016869;28;20148;-61
2022/07/23 04:47:30;;;;;;;6.55;5.85;;;26.60;71.10;;;;;;5002669;28;20125;-61
2022/07/23 04:49:56;;;;;;;8.88;6.65;;;26.60;71.10;;;;;;5017290;28;20025;-61
2022/07/23 04:52:21;;;;;;;7.63;6.82;;;26.60;71.20;;;;;;5017547;28;20078;-61
2022/07/23 04:54:47;;;;;;;8.50;7.30;;;26.60;71.40;;;;;;5018968;28;20056;-62
2022/07/23 04:57:12;;;;;;;8.32;6.32;;;26.50;71.40;;;;;;5020068;28;20049;-61
2022/07/23 04:59:38;;;;;;;7.60;5.88;;;26.50;71.30;;;;;;5018545;28;20057;-61
2022/07/23 05:02:03;;;;;;;6.85;5.85;;;26.50;71.40;;;;;;5018892;28;20021;-61
2022/07/23 05:04:29;;;;;;;7.18;6.55;;;26.40;71.30;;;;;;5014240;28;20045;-61
2022/07/23 05:06:54;;;;;;;6.57;5.53;;;26.40;71.40;;;;;;5016150;28;20037;-61
2022/07/23 05:09:20;;;;;;;8.20;6.47;;;26.40;71.40;;;;;;5016910;28;20044;-61
2022/07/23 05:11:45;;;;;;;7.47;5.88;;;26.40;71.60;;;;;;5018350;28;20219;-61
2022/07/23 05:14:12;;;;;;;10.45;6.07;;;26.40;71.70;;;;;;5020772;28;20075;-61
2022/07/23 05:16:38;;;;;;;15.88;7.57;;;26.30;71.50;;;;;;4978252;28;1033952;-61
2022/07/23 05:19:03;;;;;;;12.40;7.45;;;26.30;71.60;;;;;;4999577;28;20133;-61
2022/07/23 05:21:29;;;;;;;14.38;6.45;;;26.30;71.70;;;;;;5016758;28;20183;-61
2022/07/23 05:23:55;;;;;;;11.25;6.95;;;26.30;71.60;;;;;;5020765;28;20115;-62
2022/07/23 05:26:20;;;;;;;17.55;7.65;;;26.30;71.70;;;;;;5019902;28;20046;-61
2022/07/23 05:28:46;;;;;;;19.80;6.85;;;26.30;71.90;;;;;;5019148;28;20489;-62
2022/07/23 05:31:11;;;;;;;16.27;7.18;;;26.20;72.20;;;;;;5020419;28;20549;-62
2022/07/23 05:33:37;;;;;;;19.90;7.43;;;26.20;72.40;;;;;;5014821;28;20091;-61
2022/07/23 05:36:03;;;;;;;20.27;7.18;;;26.20;72.60;;;;;;5019353;28;20053;-62
2022/07/23 05:38:32;;;;;;;17.45;7.60;;;26.20;72.70;;;;;;5019007;28;20122;-60
2022/07/23 05:40:57;;;;;;;10.48;6.63;;;26.10;73.00;;;;;;4988171;28;20041;-60
2022/07/23 05:43:23;;;;;;;15.32;6.95;;;26.10;73.00;;;;;;5019379;28;20033;-60
2022/07/23 05:45:49;;;;;;;15.77;7.50;;;26.10;73.10;;;;;;5019179;28;20026;-60
2022/07/23 05:48:14;;;;;;;13.93;7.07;;;26.10;73.40;;;;;;5015354;28;20084;-61
2022/07/23 05:50:40;;;;;;;15.18;6.97;;;26.00;73.50;;;;;;5016897;28;20025;-61
2022/07/23 05:53:05;;;;;;;11.88;6.40;;;26.00;73.90;;;;;;5017530;28;20472;-62
2022/07/23 05:55:31;;;;;;;13.93;6.53;;;26.00;74.00;;;;;;5020744;28;20588;-60
2022/07/23 05:57:57;;;;;;;11.82;6.60;;;26.00;74.30;;;;;;5016744;28;20033;-61
2022/07/23 06:00:22;;;;;;;12.32;6.45;;;26.00;74.50;;;;;;5018148;28;20384;-62
2022/07/23 06:02:48;;;;;;;8.90;6.10;;;26.00;74.60;;;;;;5014623;28;20052;-61
2022/07/23 06:05:13;;;;;;;12.98;5.75;;;25.90;74.90;;;;;;5016546;28;20109;-62
2022/07/23 06:07:39;;;;;;;13.98;6.60;;;26.00;75.20;;;;;;5017543;28;20570;-62
2022/07/23 06:10:05;;;;;;;12.75;7.03;;;25.90;75.40;;;;;;5020893;28;20146;-61
2022/07/23 06:12:31;;;;;;;11.45;6.50;;;25.90;75.60;;;;;;5020159;28;20029;-62
2022/07/23 06:14:56;;;;;;;11.57;6.38;;;25.80;75.80;;;;;;5018767;28;20163;-61
2022/07/23 06:17:22;;;;;;;11.93;6.53;;;25.80;75.90;;;;;;5016763;28;20726;-62
2022/07/23 06:19:47;;;;;;;10.73;6.80;;;25.80;76.20;;;;;;4999732;28;20492;-60
2022/07/23 06:22:13;;;;;;;12.73;6.47;;;25.80;76.40;;;;;;5018006;28;20037;-61
2022/07/23 06:24:38;;;;;;;11.63;6.25;;;25.80;76.60;;;;;;5019894;28;20038;-61
2022/07/23 06:27:04;;;;;;;9.88;6.70;;;25.80;76.80;;;;;;5017897;28;20045;-63
2022/07/23 06:29:29;;;;;;;9.00;6.68;;;25.80;76.90;;;;;;5019096;28;20049;-63
2022/07/23 06:31:55;;;;;;;8.15;5.95;;;25.70;76.90;;;;;;5015748;28;20069;-63
2022/07/23 06:34:20;;;;;;;8.23;6.07;;;25.70;77.10;;;;;;5018562;28;20041;-62
2022/07/23 06:36:46;;;;;;;7.97;6.22;;;25.70;77.10;;;;;;5018323;28;20033;-61
2022/07/23 06:39:11;;;;;;;10.10;6.13;;;25.70;77.20;;;;;;5017316;28;20771;-62
2022/07/23 06:41:37;;;;;;;9.57;6.00;;;25.70;77.20;;;;;;5016307;28;20573;-61
2022/07/23 06:44:03;;;;;;;7.88;5.88;;;25.70;77.40;;;;;;5017514;28;20040;-61
2022/07/23 06:46:28;;;;;;;9.35;6.20;;;25.60;77.50;;;;;;5020286;28;20099;-62
2022/07/23 06:48:54;;;;;;;8.52;5.70;;;25.60;77.60;;;;;;5019299;28;20408;-60
2022/07/23 06:51:19;;;;;;;8.05;5.85;;;25.60;77.70;;;;;;5017650;28;20477;-63
2022/07/23 06:53:45;;;;;;;9.57;5.93;;;25.60;78.30;;;;;;5017165;28;20053;-61
2022/07/23 06:56:10;;;;;;;8.05;6.05;;;25.60;77.90;;;;;;5015233;28;20553;-61
2022/07/23 06:58:36;;;;;;;6.28;5.68;;;25.60;77.90;;;;;;5020130;28;20676;-60
2022/07/23 07:01:01;;;;;;;9.73;6.22;;;25.60;77.90;;;;;;5020471;28;20049;-63
2022/07/23 07:03:27;;;;;;;8.80;5.47;;;25.60;77.90;;;;;;5019123;28;20060;-62
2022/07/23 07:05:53;;;;;;;8.05;5.65;;;25.60;77.80;;;;;;5017027;28;20064;-61
2022/07/23 07:08:18;;;;;;;9.90;6.18;;;25.60;78.50;;;;;;5018240;28;20083;-64
2022/07/23 07:10:44;;;;;;;9.98;5.93;;;25.60;77.80;;;;;;5015370;28;20571;-62
2022/07/23 07:13:09;;;;;;;6.43;5.25;;;25.60;77.80;;;;;;4998181;28;20489;-63
2022/07/23 07:15:35;;;;;;;8.30;5.93;;;25.60;77.90;;;;;;5016217;28;20049;-62
2022/07/23 07:18:00;;;;;;;7.25;5.05;;;25.60;78.00;;;;;;5016128;28;21605;-62
2022/07/23 07:20:26;;;;;;;9.13;5.25;;;25.60;78.10;;;;;;5012112;28;20356;-60
2022/07/23 07:22:51;;;;;;;8.23;5.35;;;25.60;78.40;;;;;;5012656;28;20049;-60
2022/07/23 07:25:17;;;;;;;7.57;5.18;;;25.60;78.50;;;;;;5017212;28;20037;-62
2022/07/23 07:27:43;;;;;;;7.93;5.80;;;25.60;78.60;;;;;;5017812;28;20025;-61
2022/07/23 07:30:10;;;;;;;8.38;5.63;;;25.50;78.40;;;;;;5017116;28;20597;-62
2022/07/23 07:32:36;;;;;;;6.18;5.57;;;25.50;78.50;;;;;;4998378;28;20026;-61
2022/07/23 07:35:03;;;;;;;5.72;5.22;;;25.50;78.50;;;;;;5013086;28;20055;-64
2022/07/23 07:37:29;;;;;;;7.60;5.47;;;25.50;78.40;;;;;;5013862;28;20045;-63
2022/07/23 07:39:54;;;;;;;7.25;5.75;;;25.50;78.40;;;;;;5017225;28;20481;-61
2022/07/23 07:42:20;;;;;;;7.50;5.45;;;25.50;78.60;;;;;;5018398;28;20026;-62
2022/07/23 07:44:45;;;;;;;7.50;5.60;;;25.50;78.90;;;;;;5017071;28;20107;-62
2022/07/23 07:47:11;;;;;;;6.13;5.50;;;25.50;79.00;;;;;;5017096;28;20688;-63
2022/07/23 07:49:36;;;;;;;6.32;5.28;;;25.40;79.00;;;;;;5018729;28;20131;-62
2022/07/23 07:52:02;;;;;;;5.93;5.32;;;25.40;79.10;;;;;;5016921;28;20486;-63
2022/07/23 07:54:28;;;;;;;6.22;5.63;;;25.40;79.30;;;;;;5019206;28;20040;-62
2022/07/23 07:56:53;;;;;;;10.15;5.70;;;25.40;79.50;;;;;;5018994;28;20041;-62
2022/07/23 07:59:19;;;;;;;7.45;5.47;;;25.40;79.50;;;;;;5019034;28;20033;-61
2022/07/23 08:01:44;;;;;;;7.13;5.47;;;25.40;80.30;;;;;;5011025;28;20442;-62
2022/07/23 08:04:10;;;;;;;6.50;5.82;;;25.40;79.90;;;;;;5010996;28;20617;-63
2022/07/23 08:06:36;;;;;;;7.07;5.95;;;25.40;80.90;;;;;;4999857;28;20037;-61
2022/07/23 08:09:01;;;;;;;7.20;5.70;;;25.40;81.30;;;;;;5002307;28;20029;-62
2022/07/23 08:11:27;;;;;;;7.47;5.63;;;25.40;81.30;;;;;;5017627;28;20029;-63
2022/07/23 08:13:52;;;;;;;12.35;6.00;;;25.30;81.90;;;;;;5016737;28;20026;-61
2022/07/23 08:16:18;;;;;;;10.65;6.00;;;25.20;81.80;;;;;;5013282;28;20484;-61
2022/07/23 08:18:43;;;;;;;10.27;6.15;;;25.20;81.60;;;;;;5014145;28;20029;-60
2022/07/23 08:21:09;;;;;;;19.52;7.15;;;25.20;81.60;;;;;;5015095;28;20096;-63
2022/07/23 08:23:34;;;;;;;19.80;7.13;;;25.30;82.60;;;;;;5018059;28;20476;-60
2022/07/23 08:26:00;;;;;;;11.98;6.28;;;25.20;82.80;;;;;;5011590;28;21232;-61
2022/07/23 08:28:26;;;;;;;38.42;7.32;;;25.20;83.20;;;;;;5013323;28;20025;-59
2022/07/23 08:30:52;;;;;;;12.30;6.53;;;25.10;83.10;;;;;;5013103;28;20038;-61
2022/07/23 08:33:17;;;;;;;11.70;6.65;;;25.20;83.50;;;;;;5015404;28;20036;-60
2022/07/23 08:35:46;;;;;;;22.08;7.55;;;25.20;83.60;;;;;;5012390;28;20447;-59
2022/07/23 08:38:13;;;;;;;24.38;8.25;;;25.20;83.70;;;;;;5000091;28;20025;-61
2022/07/23 08:40:41;;;;;;;27.13;8.02;;;25.20;84.20;;;;;;5013557;28;20034;-60
2022/07/23 08:43:09;;;;;;;43.13;10.70;;;25.30;84.40;;;;;;5011768;28;20091;-62
2022/07/23 08:45:39;;;;;;;38.72;9.30;;;25.30;84.70;;;;;;5014802;28;20025;-60
2022/07/23 08:48:07;;;;;;;36.78;8.85;;;25.30;84.40;;;;;;5014224;28;20014;-59
2022/07/23 08:50:32;;;;;;;40.17;9.73;;;25.30;84.50;;;;;;4997875;28;20027;-60
2022/07/23 08:52:58;;;;;;;31.23;9.73;;;25.30;84.50;;;;;;5012401;28;20107;-60
2022/07/23 08:55:24;;;;;;;22.75;8.13;;;25.30;84.50;;;;;;5014782;28;20457;-61
2022/07/23 08:57:51;;;;;;;77.43;10.93;;;25.30;84.80;;;;;;5015558;28;20036;-61
2022/07/23 09:00:17;;;;;;;52.95;10.82;;;25.30;84.90;;;;;;4994375;28;20029;-60
2022/07/23 09:02:43;;;;;;;45.22;9.30;;;25.30;85.40;;;;;;5015872;28;20119;-60
2022/07/23 09:05:10;;;;;;;37.03;9.40;;;25.30;85.40;;;;;;5010065;28;20492;-62
2022/07/23 09:07:37;;;;;;;87.05;12.70;;;25.30;85.40;;;;;;4990271;28;20090;-61
2022/07/23 09:10:06;;;;;;;120.05;18.42;;;25.30;85.20;;;;;;4996878;28;20029;-61
2022/07/23 09:12:32;;;;;;;88.63;12.48;;;25.30;85.30;;;;;;5014827;28;20101;-63
2022/07/23 09:14:57;;;;;;;76.35;12.80;;;25.30;85.40;;;;;;5014754;28;20546;-63
2022/07/23 09:17:23;;;;;;;56.80;11.13;;;25.30;85.10;;;;;;4996655;28;20041;-63
2022/07/23 09:19:49;;;;;;;162.95;22.45;;;25.40;85.50;;;;;;5013156;28;20041;-62
2022/07/23 09:22:26;;;;;;;83.90;16.10;;;25.40;85.90;;;;;;4995351;28;20560;-62
2022/07/23 09:25:08;;;;;;;68.07;13.57;;;25.40;86.10;;;;;;5010242;28;20280;-62
2022/07/23 09:27:49;;;;;;;64.10;12.75;;;25.40;85.90;;;;;;5011403;28;20264;-61
2022/07/23 09:30:14;;;;;;;77.68;12.45;;;25.40;85.70;;;;;;5011306;28;21460;-61
2022/07/23 09:32:40;;;;;;;63.35;10.02;;;25.40;85.70;;;;;;5013953;28;20056;-60
2022/07/23 09:35:06;;;;;;;156.45;19.13;;;25.40;85.60;;;;;;5018088;28;20044;-63
2022/07/23 09:37:31;;;;;;;69.40;12.52;;;25.40;85.70;;;;;;5014882;28;20111;-60
2022/07/23 09:40:08;;;;;;;93.00;13.73;;;25.40;85.80;;;;;;5015897;28;20479;-60
2022/07/23 09:42:34;;;;;;;116.00;14.05;;;25.40;86.10;;;;;;5009081;28;20033;-59
2022/07/23 09:44:59;;;;;;;80.78;13.18;;;25.40;85.80;;;;;;5008101;28;20062;-60
2022/07/23 09:47:26;;;;;;;53.65;12.15;;;25.30;85.70;;;;;;4998418;28;20037;-59
2022/07/23 09:50:15;;;;;;;85.60;13.75;;;25.40;85.90;;;;;;5010876;28;20041;-61
2022/07/23 09:52:48;;;;;;;71.20;12.95;;;25.40;86.60;;;;;;5009409;28;20030;-61
2022/07/23 09:55:15;;;;;;;70.47;12.05;;;25.50;86.40;;;;;;4996806;28;20025;-61
2022/07/23 09:57:41;;;;;;;69.70;13.70;;;25.40;86.70;;;;;;5011429;28;20028;-60
2022/07/23 10:00:09;;;;;;;77.28;12.70;;;25.40;86.90;;;;;;4996884;28;20096;-60
2022/07/23 10:02:35;;;;;;;88.70;13.50;;;25.30;86.80;;;;;;5011302;28;20032;-61
2022/07/23 10:05:01;;;;;;;65.65;12.07;;;25.30;86.90;;;;;;4992786;28;20029;-61
2022/07/23 10:07:29;;;;;;;117.53;15.23;;;25.40;86.70;;;;;;5013034;28;20022;-60
2022/07/23 10:09:55;;;;;;;90.93;13.27;;;25.40;86.90;;;;;;5012557;28;20486;-60
2022/07/23 10:14:58;;;;;;;71.85;13.02;;;25.30;86.70;;;;;;5014499;28;20033;-60
2022/07/23 10:17:23;;;;;;;73.65;13.52;;;25.30;86.80;;;;;;5012874;28;20056;-60
2022/07/23 10:19:49;;;;;;;72.78;12.82;;;25.30;86.30;;;;;;5013453;28;21047;-59
2022/07/23 10:22:19;;;;;;;65.00;11.93;;;25.30;85.80;;;;;;5015274;28;20449;-59
2022/07/23 10:24:45;;;;;;;75.70;13.00;;;25.30;85.50;;;;;;5014428;28;20052;-60
2022/07/23 10:27:35;;;;;;;103.70;12.77;;;25.30;85.40;;;;;;5017195;28;20018;-61
2022/07/23 10:30:06;;;;;;;75.78;13.40;;;25.30;85.70;;;;;;5016529;28;20075;-62
2022/07/23 10:32:52;;;;;;;72.05;12.68;;;25.40;85.70;;;;;;5010759;28;20135;-62
2022/07/23 10:35:42;;;;;;;152.82;19.30;;;25.40;85.70;;;;;;5010428;28;20057;-63
2022/07/23 10:38:26;;;;;;;74.93;11.50;;;25.40;85.90;;;;;;5011971;28;20433;-62
2022/07/23 10:40:59;;;;;;;91.57;13.93;;;25.40;85.90;;;;;;5015246;28;20040;-62
2022/07/23 10:43:24;;;;;;;106.40;15.02;;;25.40;85.80;;;;;;5013613;28;20021;-61
2022/07/23 10:45:50;;;;;;;83.57;13.95;;;25.40;85.40;;;;;;5015207;28;20551;-61
2022/07/23 10:48:20;;;;;;;116.72;15.55;;;25.40;85.50;;;;;;4996293;28;20520;-62
2022/07/23 10:51:06;;;;;;;129.23;18.85;;;25.40;85.60;;;;;;5011205;28;20029;-62
2022/07/23 10:54:01;;;;;;;129.70;18.45;;;25.40;85.80;;;;;;5014839;28;20481;-62
2022/07/23 10:56:54;;;;;;;132.57;18.42;;;25.40;85.90;;;;;;4998131;28;20065;-61
2022/07/23 10:59:20;;;;;;;80.32;13.07;;;25.40;85.70;;;;;;5012982;28;20045;-62
2022/07/23 11:01:45;;;;;;;264.15;27.83;;;25.40;85.80;;;;;;5014394;28;20118;-62
2022/07/23 11:04:12;;;;;;;124.07;17.38;;;25.30;85.80;;;;;;5012296;28;20594;-61
2022/07/23 11:06:50;;;;;;;96.68;13.43;;;25.30;85.40;;;;;;5014960;28;20026;-61
2022/07/23 11:09:29;;;;;;;84.30;15.10;;;25.30;85.60;;;;;;5013232;28;20396;-61
2022/07/23 11:12:14;;;;;;;106.72;15.32;;;25.40;85.60;;;;;;5010297;28;20527;-61
2022/07/23 11:14:58;;;;;;;135.38;19.50;;;25.40;85.40;;;;;;5014019;28;20079;-62
2022/07/23 11:17:24;;;;;;;81.35;14.02;;;25.40;85.20;;;;;;5015629;28;20041;-62
2022/07/23 11:20:09;;;;;;;68.13;12.75;;;25.50;84.90;;;;;;5016112;28;20093;-62
2022/07/23 11:22:44;;;;;;;73.57;12.43;;;25.60;84.30;;;;;;5018109;28;20049;-60
2022/07/23 11:25:10;;;;;;;95.82;13.98;;;25.60;83.80;;;;;;5019293;28;20165;-59
2022/07/23 11:27:42;;;;;;;83.55;12.27;;;25.70;84.40;;;;;;5017105;28;20030;-60
2022/07/23 11:30:09;;;;;;;72.78;13.15;;;25.70;83.90;;;;;;5017793;28;20057;-61
2022/07/23 11:32:42;;;;;;;74.30;12.68;;;25.80;83.60;;;;;;5016874;28;20091;-61
2022/07/23 11:35:27;;;;;;;206.60;21.90;;;25.90;83.20;;;;;;5004442;28;20044;-60
2022/07/23 11:37:58;;;;;;;99.63;14.63;;;25.90;83.70;;;;;;5019567;28;20548;-65
2022/07/23 11:40:24;;;;;;;85.82;13.73;;;25.90;83.10;;;;;;5017223;28;20144;-62
2022/07/23 11:42:51;;;;;;;72.47;13.55;;;26.00;83.60;;;;;;4996900;28;20041;-61
2022/07/23 11:45:17;;;;;;;82.22;13.98;;;26.10;83.50;;;;;;5017382;28;20142;-60
2022/07/23 11:47:42;;;;;;;55.45;12.05;;;26.10;83.30;;;;;;5017872;28;20029;-62
2022/07/23 11:50:08;;;;;;;62.28;13.38;;;26.20;83.90;;;;;;5017353;28;20025;-62
2022/07/23 11:52:33;;;;;;;102.68;14.57;;;26.20;83.50;;;;;;5015544;28;20018;-61
2022/07/23 11:55:07;;;;;;;101.82;15.32;;;26.30;83.20;;;;;;5017778;28;21946;-62
2022/07/23 11:57:37;;;;;;;76.30;13.25;;;26.40;83.30;;;;;;5018481;28;20116;-62
2022/07/23 12:00:17;;;;;;;82.65;14.77;;;26.40;83.30;;;;;;5018595;28;20087;-62
2022/07/23 12:02:44;;;;;;;103.60;15.57;;;26.50;82.90;;;;;;5013996;28;20052;-63
2022/07/23 12:05:17;;;;;;;71.43;14.23;;;26.60;82.60;;;;;;5012753;28;20033;-62
2022/07/23 12:07:44;;;;;;;69.90;12.73;;;26.60;82.60;;;;;;5015786;28;20052;-62
2022/07/23 12:10:13;;;;;;;90.18;14.38;;;26.70;82.70;;;;;;4999279;28;20025;-62
2022/07/23 12:12:40;;;;;;;82.45;13.05;;;26.80;82.80;;;;;;5016813;28;20432;-60
2022/07/23 12:15:06;;;;;;;64.43;13.43;;;26.80;82.60;;;;;;5013214;28;20591;-60
2022/07/23 12:17:34;;;;;;;62.53;13.02;;;26.90;83.10;;;;;;5016022;28;20052;-61
2022/07/23 12:20:00;;;;;;;54.13;11.27;;;27.00;82.30;;;;;;5016221;28;20036;-60
2022/07/23 12:22:26;;;;;;;55.60;11.88;;;27.00;82.10;;;;;;5016689;28;20030;-63
2022/07/23 12:25:04;;;;;;;61.25;12.15;;;27.20;81.80;;;;;;5017351;28;20033;-61
2022/07/23 12:27:29;;;;;;;58.33;12.75;;;27.20;82.40;;;;;;5015782;28;20022;-61
2022/07/23 12:29:55;;;;;;;57.90;13.90;;;27.30;81.50;;;;;;5001640;28;21129;-62
2022/07/23 12:32:21;;;;;;;53.90;11.15;;;27.30;81.20;;;;;;5017811;28;20522;-61
2022/07/23 12:35:01;;;;;;;52.50;13.57;;;27.40;80.90;;;;;;5018260;28;20477;-61
2022/07/23 12:37:28;;;;;;;56.97;12.25;;;27.50;80.70;;;;;;5002345;28;20151;-64
2022/07/23 12:39:54;;;;;;;67.20;13.48;;;27.60;80.30;;;;;;5018738;28;20026;-62